createdAt,value
2024-04-18T00:01:39.412Z,1.50
2024-04-18T00:04:12.403Z,1.90
2024-04-18T00:06:40.297Z,1.73
2024-04-18T00:09:10.994Z,1.70
2024-04-18T00:11:38.806Z,1.90
2024-04-18T00:14:15.851Z,1.83
2024-04-18T00:16:43.632Z,2.70
2024-04-18T00:19:22.595Z,2.30
2024-04-18T00:22:00.450Z,2.57
2024-04-18T00:24:31.189Z,2.20
2024-04-18T00:26:59.098Z,2.40
2024-04-18T00:29:38.717Z,2.37
2024-04-18T00:32:12.412Z,2.10
2024-04-18T00:35:05.498Z,2.20
2024-04-18T00:37:36.410Z,2.30
2024-04-18T00:40:07.080Z,2.47
2024-04-18T00:42:39.422Z,1.83
2024-04-18T00:45:10.080Z,2.03
2024-04-18T00:47:44.508Z,2.17
2024-04-18T00:50:18.089Z,2.00
2024-04-18T00:52:46.901Z,1.93
2024-04-18T00:55:29.881Z,2.07
2024-04-18T00:58:10.508Z,1.80
2024-04-18T01:00:47.518Z,2.20
2024-04-18T01:03:34.298Z,2.13
2024-04-18T01:06:13.975Z,1.57
2024-04-18T01:09:02.564Z,1.70
2024-04-18T01:11:35.907Z,1.87
2024-04-18T01:14:10.427Z,1.80
2024-04-18T01:16:59.289Z,2.00
2024-04-18T01:19:27.024Z,2.10
2024-04-18T01:22:04.191Z,2.20
2024-04-18T01:24:34.091Z,2.33
2024-04-18T01:27:07.371Z,1.60
2024-04-18T01:29:46.616Z,2.10
2024-04-18T01:32:36.531Z,1.67
2024-04-18T01:35:07.553Z,1.80
2024-04-18T01:37:47.956Z,1.60
2024-04-18T01:40:18.747Z,1.67
2024-04-18T01:43:10.253Z,1.90
2024-04-18T01:46:00.761Z,1.87
2024-04-18T01:48:28.889Z,2.00
2024-04-18T01:51:17.972Z,1.80
2024-04-18T01:53:45.758Z,1.83
2024-04-18T01:56:22.019Z,2.10
2024-04-18T01:58:52.491Z,2.67
2024-04-18T02:01:28.252Z,2.00
2024-04-18T02:03:56.382Z,2.37
2024-04-18T02:06:26.913Z,2.30
2024-04-18T02:08:55.006Z,2.07
2024-04-18T02:11:44.635Z,2.00
2024-04-18T02:14:15.322Z,1.90
2024-04-18T02:16:45.830Z,1.80
2024-04-18T02:19:25.802Z,2.40
2024-04-18T02:22:02.317Z,1.77
2024-04-18T02:24:33.145Z,2.10
2024-04-18T02:27:03.500Z,1.67
2024-04-18T02:29:33.827Z,2.00
2024-04-18T02:32:04.309Z,2.10
2024-04-18T02:34:32.166Z,1.60
2024-04-18T02:37:22.508Z,1.90
2024-04-18T02:39:50.434Z,2.03
2024-04-18T02:42:30.200Z,2.60
2024-04-18T02:45:00.992Z,2.27
2024-04-18T02:47:31.546Z,2.70
2024-04-18T02:50:08.852Z,1.93
2024-04-18T02:52:39.122Z,2.53
2024-04-18T02:55:15.751Z,3.00
2024-04-18T02:57:58.525Z,2.47
2024-04-18T03:00:29.030Z,3.00
2024-04-18T03:03:11.793Z,2.27
2024-04-18T03:06:03.578Z,3.30
2024-04-18T03:08:34.005Z,4.13
2024-04-18T03:11:17.191Z,3.30
2024-04-18T03:14:06.615Z,3.17
2024-04-18T03:16:37.062Z,3.43
2024-04-18T03:19:23.087Z,2.40
2024-04-18T03:21:54.026Z,2.47
2024-04-18T03:24:25.330Z,2.50
2024-04-18T03:26:53.601Z,2.53
2024-04-18T03:29:25.120Z,2.10
2024-04-18T03:32:01.544Z,2.70
2024-04-18T03:34:50.428Z,2.27
2024-04-18T03:37:21.635Z,2.03
2024-04-18T03:39:51.928Z,1.93
2024-04-18T03:42:22.399Z,2.90
2024-04-18T03:44:55.648Z,2.33
2024-04-18T03:47:26.080Z,2.20
2024-04-18T03:50:11.578Z,2.20
2024-04-18T03:52:39.764Z,2.23
2024-04-18T03:55:20.500Z,1.80
2024-04-18T03:57:50.730Z,1.70
2024-04-18T04:00:43.029Z,2.80
2024-04-18T04:03:13.702Z,2.13
2024-04-18T04:05:44.091Z,2.60
2024-04-18T04:08:11.866Z,2.83
2024-04-18T04:10:42.427Z,2.23
2024-04-18T04:13:10.190Z,3.00
2024-04-18T04:15:46.866Z,2.03
2024-04-18T04:18:37.556Z,2.60
2024-04-18T04:21:27.013Z,2.00
2024-04-18T04:23:55.339Z,2.87
2024-04-18T04:26:46.086Z,2.80
2024-04-18T04:29:17.121Z,2.13
2024-04-18T04:31:44.975Z,2.07
2024-04-18T04:34:18.033Z,2.33
2024-04-18T04:36:45.915Z,2.43
2024-04-18T04:39:16.321Z,3.10
2024-04-18T04:41:44.301Z,2.97
2024-04-18T04:44:14.611Z,2.97
2024-04-18T04:46:51.796Z,2.47
2024-04-18T04:49:25.026Z,2.47
2024-04-18T04:52:02.011Z,2.33
2024-04-18T04:54:47.038Z,3.03
2024-04-18T04:57:15.617Z,2.30
2024-04-18T04:59:46.731Z,1.83
2024-04-18T05:02:14.571Z,2.10
2024-04-18T05:04:56.373Z,2.93
2024-04-18T05:07:33.453Z,3.10
2024-04-18T05:10:22.594Z,3.23
2024-04-18T05:12:51.276Z,3.73
2024-04-18T05:15:40.541Z,3.83
2024-04-18T05:18:10.817Z,3.77
2024-04-18T05:20:43.943Z,4.07
2024-04-18T05:23:11.659Z,3.47
2024-04-18T05:25:41.998Z,2.97
2024-04-18T05:28:21.592Z,3.17
2024-04-18T05:31:04.741Z,3.50
2024-04-18T05:33:35.756Z,3.70
2024-04-18T05:36:09.096Z,3.70
2024-04-18T05:38:39.544Z,3.73
2024-04-18T05:41:09.959Z,3.90
2024-04-18T05:43:52.712Z,3.30
2024-04-18T05:46:23.092Z,4.00
2024-04-18T05:48:53.812Z,3.97
2024-04-18T05:51:27.020Z,2.93
2024-04-18T05:54:17.867Z,3.20
2024-04-18T05:57:07.317Z,3.07
2024-04-18T05:59:56.135Z,2.97
2024-04-18T06:02:26.565Z,2.47
2024-04-18T06:04:57.091Z,2.87
2024-04-18T06:07:50.421Z,3.17
2024-04-18T06:10:21.253Z,3.60
2024-04-18T06:12:51.632Z,4.47
2024-04-18T06:15:22.223Z,5.40
2024-04-18T06:17:52.610Z,3.87
2024-04-18T06:20:23.267Z,4.47
2024-04-18T06:22:56.303Z,4.00
2024-04-18T06:25:30.563Z,4.00
2024-04-18T06:28:00.870Z,4.20
2024-04-18T06:30:33.150Z,3.97
2024-04-18T06:33:03.889Z,3.85
2024-04-18T06:35:34.376Z,3.78
2024-04-18T06:38:07.216Z,3.90
2024-04-18T06:40:37.758Z,3.42
2024-04-18T06:43:08.134Z,3.60
2024-04-18T06:45:39.958Z,3.47
2024-04-18T06:48:11.653Z,2.90
2024-04-18T06:50:42.563Z,2.75
2024-04-18T06:53:15.498Z,3.15
2024-04-18T06:55:45.987Z,2.95
2024-04-18T06:58:16.607Z,2.90
2024-04-18T07:00:48.158Z,2.80
2024-04-18T07:03:19.466Z,2.50
2024-04-18T07:05:56.107Z,2.60
2024-04-18T07:08:29.348Z,2.60
2024-04-18T07:11:00.414Z,2.45
2024-04-18T07:13:33.153Z,2.08
2024-04-18T07:16:24.784Z,2.15
2024-04-18T07:18:58.485Z,1.92
2024-04-18T07:21:28.943Z,1.90
2024-04-18T07:24:20.824Z,1.42
2024-04-18T07:26:48.679Z,1.65
2024-04-18T07:29:18.981Z,1.50
2024-04-18T07:31:49.567Z,1.70
2024-04-18T07:34:17.497Z,1.42
2024-04-18T07:36:49.192Z,1.50
2024-04-18T07:39:22.960Z,1.58
2024-04-18T07:41:53.254Z,1.60
2024-04-18T07:44:25.043Z,1.60
2024-04-18T07:46:55.695Z,1.60
2024-04-18T07:49:26.054Z,1.50
2024-04-18T07:51:57.591Z,1.40
2024-04-18T07:54:30.906Z,1.52
2024-04-18T07:57:02.003Z,8.20
2024-04-18T07:59:33.263Z,1.80
2024-04-18T08:02:05.173Z,1.77
2024-04-18T08:04:52.719Z,1.30
2024-04-18T08:07:31.366Z,1.58
2024-04-18T08:10:10.807Z,1.50
2024-04-18T08:12:47.822Z,1.58
2024-04-18T08:15:24.441Z,1.55
2024-04-18T08:18:11.909Z,1.90
2024-04-18T08:20:42.666Z,1.60
2024-04-18T08:23:13.453Z,1.75
2024-04-18T08:25:47.162Z,1.13
2024-04-18T08:28:18.066Z,1.23
2024-04-18T08:30:48.620Z,1.30
2024-04-18T08:33:19.122Z,1.20
2024-04-18T08:35:49.548Z,0.95
2024-04-18T08:38:19.927Z,1.40
2024-04-18T08:40:54.131Z,1.45
2024-04-18T08:43:24.657Z,1.10
2024-04-18T08:45:55.306Z,1.60
2024-04-18T08:48:28.013Z,1.10
2024-04-18T08:50:58.921Z,1.60
2024-04-18T08:53:29.353Z,2.90
2024-04-18T08:56:03.489Z,2.15
2024-04-18T08:58:34.045Z,2.63
2024-04-18T09:01:04.860Z,2.75
2024-04-18T09:03:35.392Z,1.95
2024-04-18T09:06:06.715Z,1.75
2024-04-18T09:08:37.219Z,1.65
2024-04-18T09:11:11.678Z,1.50
2024-04-18T09:13:42.551Z,1.83
2024-04-18T09:16:12.960Z,1.30
2024-04-18T09:18:43.533Z,2.00
2024-04-18T09:21:14.783Z,1.33
2024-04-18T09:23:45.576Z,1.30
2024-04-18T09:26:18.646Z,1.05
2024-04-18T09:28:48.975Z,3.78
2024-04-18T09:31:27.655Z,1.50
2024-04-18T09:34:06.173Z,1.30
2024-04-18T09:36:36.791Z,1.00
2024-04-18T09:39:07.689Z,0.93
2024-04-18T09:41:41.961Z,1.20
2024-04-18T09:44:18.403Z,1.15
2024-04-18T09:46:51.265Z,1.00
2024-04-18T09:49:22.432Z,1.50
2024-04-18T09:51:53.837Z,1.10
2024-04-18T09:54:24.543Z,1.20
2024-04-18T09:56:58.226Z,1.05
2024-04-18T09:59:30.725Z,1.20
2024-04-18T10:02:01.545Z,0.80
2024-04-18T10:04:32.230Z,1.30
2024-04-18T10:07:03.458Z,1.10
2024-04-18T10:09:36.096Z,1.00
2024-04-18T10:12:09.759Z,0.77
2024-04-18T10:14:40.509Z,0.80
2024-04-18T10:17:11.214Z,0.80
2024-04-18T10:19:43.714Z,1.15
2024-04-18T10:22:29.329Z,0.80
2024-04-18T10:25:08.403Z,1.13
2024-04-18T10:27:48.216Z,0.98
2024-04-18T10:30:19.489Z,0.80
2024-04-18T10:32:50.251Z,0.73
2024-04-18T10:35:20.956Z,0.35
2024-04-18T10:37:56.052Z,0.68
2024-04-18T10:40:26.366Z,0.80
2024-04-18T10:43:15.793Z,0.80
2024-04-18T10:45:51.064Z,1.40
2024-04-18T10:48:23.419Z,1.10
2024-04-18T10:50:54.142Z,1.08
2024-04-18T10:53:21.997Z,1.17
2024-04-18T10:55:52.434Z,1.38
2024-04-18T10:58:22.786Z,1.10
2024-04-18T11:01:01.048Z,1.00
2024-04-18T11:03:31.686Z,1.02
2024-04-18T11:06:04.368Z,0.90
2024-04-18T11:08:35.562Z,1.00
2024-04-18T11:11:06.607Z,1.00
2024-04-18T11:13:37.058Z,1.20
2024-04-18T11:16:11.031Z,0.85
2024-04-18T11:18:42.252Z,0.75
2024-04-18T11:21:12.750Z,0.85
2024-04-18T11:23:47.394Z,1.10
2024-04-18T11:26:22.272Z,1.30
2024-04-18T11:28:53.122Z,1.00
2024-04-18T11:31:26.151Z,0.93
2024-04-18T11:33:57.507Z,0.80
2024-04-18T11:36:28.716Z,0.68
2024-04-18T11:39:03.344Z,0.70
2024-04-18T11:41:34.759Z,0.63
2024-04-18T11:44:05.865Z,0.73
2024-04-18T11:46:38.739Z,0.40
2024-04-18T11:49:09.276Z,0.65
2024-04-18T11:51:39.685Z,0.40
2024-04-18T11:54:10.295Z,0.50
2024-04-18T11:56:40.581Z,0.38
2024-04-18T11:59:29.785Z,0.60
2024-04-18T12:02:02.564Z,0.70
2024-04-18T12:04:32.855Z,0.47
2024-04-18T12:07:19.021Z,0.40
2024-04-18T12:09:52.235Z,0.68
2024-04-18T12:12:24.836Z,0.70
2024-04-18T12:14:55.747Z,0.60
2024-04-18T12:17:34.750Z,1.00
2024-04-18T12:20:23.699Z,0.52
2024-04-18T12:22:54.138Z,0.50
2024-04-18T12:25:24.667Z,0.30
2024-04-18T12:27:54.964Z,0.60
2024-04-18T12:30:35.200Z,0.60
2024-04-18T12:33:40.532Z,0.60
2024-04-18T12:36:10.815Z,0.68
2024-04-18T12:38:41.312Z,0.60
2024-04-18T12:41:11.879Z,0.50
2024-04-18T12:43:42.229Z,0.30
2024-04-18T12:46:31.747Z,0.52
2024-04-18T12:49:05.796Z,0.35
2024-04-18T12:51:35.930Z,0.65
2024-04-18T12:54:06.509Z,0.50
2024-04-18T12:56:57.497Z,0.40
2024-04-18T12:59:25.585Z,0.45
2024-04-18T13:01:56.447Z,0.43
2024-04-18T13:04:32.289Z,0.50
2024-04-18T13:07:02.811Z,0.68
2024-04-18T13:09:34.092Z,0.43
2024-04-18T13:12:05.262Z,0.52
2024-04-18T13:14:54.349Z,0.60
2024-04-18T13:17:24.882Z,0.40
2024-04-18T13:19:59.480Z,0.88
2024-04-18T13:22:29.976Z,0.50
2024-04-18T13:25:02.909Z,0.70
2024-04-18T13:27:33.448Z,0.60
2024-04-18T13:30:07.565Z,0.63
2024-04-18T13:32:36.618Z,0.63
2024-04-18T13:35:10.515Z,0.90
2024-04-18T13:37:40.972Z,0.50
2024-04-18T13:40:20.817Z,0.70
2024-04-18T13:43:02.427Z,0.55
2024-04-18T13:45:30.930Z,1.00
2024-04-18T13:48:01.637Z,0.65
2024-04-18T13:50:52.672Z,0.60
2024-04-18T13:53:23.076Z,0.73
2024-04-18T13:55:53.377Z,0.80
2024-04-18T13:58:24.281Z,0.98
2024-04-18T14:01:02.901Z,5.43
2024-04-18T14:03:34.263Z,1.50
2024-04-18T14:06:11.586Z,1.52
2024-04-18T14:08:39.635Z,0.90
2024-04-18T14:11:29.155Z,0.98
2024-04-18T14:14:10.642Z,0.80
2024-04-18T14:17:17.599Z,0.73
2024-04-18T14:20:06.079Z,0.63
2024-04-18T14:22:38.978Z,0.60
2024-04-18T14:25:09.474Z,0.50
2024-04-18T14:27:40.022Z,0.60
2024-04-18T14:30:30.596Z,0.80
2024-04-18T14:33:13.586Z,0.60
2024-04-18T14:35:44.122Z,1.10
2024-04-18T14:38:16.953Z,0.40
2024-04-18T14:40:56.869Z,0.60
2024-04-18T14:43:32.163Z,0.75
2024-04-18T14:46:02.665Z,0.77
2024-04-18T14:48:51.019Z,1.02
2024-04-18T14:51:27.396Z,0.70
2024-04-18T14:54:00.343Z,0.70
2024-04-18T14:56:42.224Z,0.52
2024-04-18T14:59:12.651Z,0.50
2024-04-18T15:01:43.026Z,0.52
2024-04-18T15:04:13.465Z,0.70
2024-04-18T15:07:03.928Z,0.65
2024-04-18T15:09:45.852Z,0.40
2024-04-18T15:12:16.426Z,0.60
2024-04-18T15:14:48.326Z,0.80
2024-04-18T15:17:40.997Z,0.70
2024-04-18T15:20:11.838Z,0.65
2024-04-18T15:22:42.164Z,0.80
2024-04-18T15:25:29.916Z,0.90
2024-04-18T15:28:00.198Z,0.55
2024-04-18T15:30:30.744Z,0.82
2024-04-18T15:33:16.158Z,0.75
2024-04-18T15:36:07.140Z,0.68
2024-04-18T15:38:37.839Z,0.80
2024-04-18T15:41:19.645Z,1.20
2024-04-18T15:43:50.020Z,1.10
2024-04-18T15:46:38.983Z,0.85
2024-04-18T15:49:12.587Z,0.80
2024-04-18T15:51:43.219Z,0.90
2024-04-18T15:54:13.693Z,1.13
2024-04-18T15:56:46.752Z,1.30
2024-04-18T15:59:35.820Z,1.00
2024-04-18T16:02:09.549Z,1.05
2024-04-18T16:04:46.463Z,1.17
2024-04-18T16:07:34.397Z,0.90
2024-04-18T16:10:23.777Z,1.53
2024-04-18T16:12:59.859Z,1.00
2024-04-18T16:15:30.166Z,0.97
2024-04-18T16:18:03.924Z,1.23
2024-04-18T16:20:34.494Z,1.03
2024-04-18T16:23:06.881Z,1.27
2024-04-18T16:25:40.142Z,1.13
2024-04-18T16:28:11.785Z,1.07
2024-04-18T16:31:14.662Z,1.50
2024-04-18T16:33:45.170Z,1.40
2024-04-18T16:36:31.657Z,0.93
2024-04-18T16:39:12.236Z,1.13
2024-04-18T16:41:43.848Z,1.63
2024-04-18T16:44:18.237Z,1.00
2024-04-18T16:46:48.516Z,0.73
2024-04-18T16:49:18.989Z,1.00
2024-04-18T16:51:50.448Z,1.27
2024-04-18T16:54:27.188Z,0.90
2024-04-18T16:57:03.555Z,0.80
2024-04-18T16:59:52.122Z,1.13
2024-04-18T17:02:22.479Z,1.10
2024-04-18T17:04:53.135Z,2.07
2024-04-18T17:07:23.430Z,1.13
2024-04-18T17:10:13.488Z,1.00
2024-04-18T17:13:03.951Z,1.20
2024-04-18T17:16:05.577Z,1.50
2024-04-18T17:18:36.612Z,1.10
2024-04-18T17:21:07.279Z,1.33
2024-04-18T17:23:37.654Z,1.37
2024-04-18T17:26:08.136Z,1.10
2024-04-18T17:28:38.766Z,1.40
2024-04-18T17:31:11.835Z,1.40
2024-04-18T17:33:42.361Z,1.60
2024-04-18T17:36:14.708Z,1.50
2024-04-18T17:38:48.815Z,1.50
2024-04-18T17:41:31.651Z,1.10
2024-04-18T17:44:20.896Z,1.23
2024-04-18T17:46:59.728Z,1.33
2024-04-18T17:49:31.199Z,0.80
2024-04-18T17:52:01.553Z,1.60
2024-04-18T17:54:32.009Z,1.27
2024-04-18T17:57:02.576Z,1.27
2024-04-18T17:59:33.147Z,0.87
2024-04-18T18:02:07.369Z,1.30
2024-04-18T18:04:59.437Z,1.03
2024-04-18T18:07:29.865Z,0.87
2024-04-18T18:10:00.410Z,1.27
2024-04-18T18:12:31.084Z,1.27
2024-04-18T18:15:01.877Z,1.00
2024-04-18T18:17:36.905Z,1.07
2024-04-18T18:20:07.630Z,1.47
2024-04-18T18:22:50.693Z,1.10
2024-04-18T18:25:21.692Z,1.37
2024-04-18T18:27:49.560Z,1.10
2024-04-18T18:30:31.902Z,1.23
2024-04-18T18:33:22.396Z,2.30
2024-04-18T18:35:52.775Z,1.50
2024-04-18T18:38:20.545Z,1.20
2024-04-18T18:40:51.078Z,1.37
2024-04-18T18:43:25.366Z,1.87
2024-04-18T18:45:56.038Z,1.23
2024-04-18T18:48:27.095Z,1.37
2024-04-18T18:51:07.203Z,1.17
2024-04-18T18:53:35.128Z,1.27
2024-04-18T18:56:05.498Z,1.10
2024-04-18T18:58:52.510Z,1.07
2024-04-18T19:01:25.373Z,0.87
2024-04-18T19:04:15.924Z,1.00
2024-04-18T19:06:47.535Z,1.03
2024-04-18T19:09:15.429Z,1.17
2024-04-18T19:11:45.714Z,1.60
2024-04-18T19:14:13.709Z,0.77
2024-04-18T19:17:03.845Z,0.90
2024-04-18T19:19:34.530Z,1.20
2024-04-18T19:22:06.620Z,1.20
2024-04-18T19:24:34.654Z,1.53
2024-04-18T19:27:05.219Z,1.20
2024-04-18T19:29:40.403Z,1.37
2024-04-18T19:32:18.479Z,0.97
2024-04-18T19:34:48.944Z,1.17
2024-04-18T19:37:19.341Z,1.27
2024-04-18T19:39:47.171Z,1.23
2024-04-18T19:42:17.849Z,0.97
2024-04-18T19:44:45.632Z,0.80
2024-04-18T19:47:16.580Z,1.30
2024-04-18T19:49:44.893Z,0.97
2024-04-18T19:52:18.332Z,1.57
2024-04-18T19:54:46.663Z,1.27
2024-04-18T19:57:17.237Z,1.57
2024-04-18T19:59:45.617Z,1.10
2024-04-18T20:02:16.881Z,0.97
2024-04-18T20:04:44.808Z,1.03
2024-04-18T20:07:17.777Z,0.87
2024-04-18T20:09:45.626Z,1.07
2024-04-18T20:12:16.028Z,1.40
2024-04-18T20:15:03.798Z,1.20
2024-04-18T20:17:34.407Z,0.90
2024-04-18T20:20:02.498Z,0.97
2024-04-18T20:22:35.418Z,1.13
2024-04-18T20:25:05.773Z,1.07
2024-04-18T20:27:42.459Z,1.20
2024-04-18T20:30:13.228Z,1.40
2024-04-18T20:33:01.091Z,1.13
2024-04-18T20:35:32.521Z,1.40
2024-04-18T20:38:02.936Z,1.77
2024-04-18T20:40:33.780Z,1.30
2024-04-18T20:43:01.579Z,1.27
2024-04-18T20:45:32.092Z,1.37
2024-04-18T20:48:00.215Z,1.43
2024-04-18T20:50:30.736Z,1.50
2024-04-18T20:52:58.615Z,1.57
2024-04-18T20:55:31.514Z,1.07
2024-04-18T20:57:59.251Z,1.83
2024-04-18T21:00:29.828Z,0.70
2024-04-18T21:02:57.822Z,1.27
2024-04-18T21:05:28.249Z,1.30
2024-04-18T21:07:56.046Z,1.57
2024-04-18T21:10:26.534Z,1.50
2024-04-18T21:12:56.960Z,1.43
2024-04-18T21:15:27.484Z,1.47
2024-04-18T21:17:55.528Z,1.07
2024-04-18T21:20:25.870Z,1.60
2024-04-18T21:22:54.932Z,1.03
2024-04-18T21:25:25.435Z,1.37
2024-04-18T21:27:53.362Z,1.07
2024-04-18T21:30:26.432Z,1.27
2024-04-18T21:32:54.596Z,1.07
2024-04-18T21:35:35.917Z,1.30
2024-04-18T21:38:22.783Z,0.90
2024-04-18T21:40:53.229Z,1.23
2024-04-18T21:43:21.148Z,1.00
2024-04-18T21:45:54.205Z,1.13
2024-04-18T21:48:22.331Z,1.03
2024-04-18T21:50:52.686Z,1.50
2024-04-18T21:53:20.546Z,1.53
2024-04-18T21:55:50.903Z,1.33
2024-04-18T21:58:18.676Z,1.40
2024-04-18T22:00:49.035Z,1.40
2024-04-18T22:03:19.576Z,1.70
2024-04-18T22:05:49.998Z,1.47
2024-04-18T22:08:17.935Z,1.20
2024-04-18T22:10:48.331Z,1.33
2024-04-18T22:13:16.117Z,1.77
2024-04-18T22:15:46.660Z,1.33
2024-04-18T22:18:14.611Z,1.70
2024-04-18T22:20:47.536Z,1.57
2024-04-18T22:23:15.602Z,1.30
2024-04-18T22:25:46.871Z,1.13
2024-04-18T22:28:14.700Z,1.00
2024-04-18T22:30:45.276Z,0.90
2024-04-18T22:33:13.139Z,1.60
2024-04-18T22:35:43.707Z,1.47
2024-04-18T22:38:14.212Z,1.00
2024-04-18T22:40:44.604Z,1.23
2024-04-18T22:43:12.432Z,1.30
2024-04-18T22:45:43.132Z,1.10
2024-04-18T22:48:11.260Z,1.23
2024-04-18T22:50:41.788Z,1.00
2024-04-18T22:53:09.602Z,1.23
2024-04-18T22:55:42.600Z,1.23
2024-04-18T22:58:13.332Z,1.60
2024-04-18T23:00:44.383Z,1.10
2024-04-18T23:03:12.221Z,1.30
2024-04-18T23:05:42.666Z,1.23
2024-04-18T23:08:10.579Z,1.20
2024-04-18T23:10:45.683Z,1.17
2024-04-18T23:13:13.752Z,1.67
2024-04-18T23:15:47.823Z,1.10
2024-04-18T23:18:16.150Z,1.30
2024-04-18T23:20:46.933Z,0.90
2024-04-18T23:23:14.818Z,1.53
2024-04-18T23:25:49.987Z,1.00
2024-04-18T23:28:17.882Z,0.90
2024-04-18T23:30:48.414Z,0.80
2024-04-18T23:33:16.469Z,1.20
2024-04-18T23:35:47.016Z,1.10
2024-04-18T23:38:14.733Z,1.57
2024-04-18T23:40:45.178Z,1.17
2024-04-18T23:43:15.706Z,1.00
2024-04-18T23:45:46.121Z,1.50
2024-04-18T23:48:14.178Z,1.57
2024-04-18T23:50:44.817Z,1.10
2024-04-18T23:53:12.613Z,1.40
2024-04-18T23:55:43.702Z,1.27
2024-04-18T23:58:11.568Z,1.33
